createdAt,value
2023-04-15T00:02:33.019Z,98518.86
2023-04-15T00:07:36.306Z,98517.48
2023-04-15T00:12:39.146Z,98516.04
2023-04-15T00:17:42.161Z,98515.77
2023-04-15T00:22:45.087Z,98511.70
2023-04-15T00:27:47.963Z,98514.13
2023-04-15T00:32:50.925Z,98509.83
2023-04-15T00:37:54.059Z,98509.39
2023-04-15T00:42:57.027Z,98507.86
2023-04-15T00:48:00.062Z,98505.16
2023-04-15T00:53:02.979Z,98502.18
2023-04-15T00:58:05.836Z,98502.19
2023-04-15T01:03:09.230Z,98507.31
2023-04-15T01:08:12.507Z,98507.90
2023-04-15T01:13:15.393Z,98512.52
2023-04-15T01:18:19.345Z,98515.75
2023-04-15T01:23:23.311Z,98514.25
2023-04-15T01:28:27.216Z,98512.10
2023-04-15T01:33:30.029Z,98516.77
2023-04-15T01:38:33.476Z,98515.73
2023-04-15T01:43:37.389Z,98515.33
2023-04-15T01:48:40.207Z,98517.13
2023-04-15T01:53:43.104Z,98513.21
2023-04-15T01:58:46.500Z,98513.19
2023-04-15T02:03:49.590Z,98514.83
2023-04-15T02:08:52.507Z,98516.31
2023-04-15T02:13:55.294Z,98513.16
2023-04-15T02:18:58.459Z,98513.02
2023-04-15T02:24:02.387Z,98514.38
2023-04-15T02:29:05.300Z,98516.89
2023-04-15T02:34:08.324Z,98520.42
2023-04-15T02:39:12.812Z,98517.03
2023-04-15T02:44:15.626Z,98519.82
2023-04-15T02:49:19.076Z,98515.04
2023-04-15T02:54:26.166Z,98513.41
2023-04-15T02:59:29.680Z,98509.95
2023-04-15T03:04:32.489Z,98498.55
2023-04-15T03:09:35.307Z,98505.53
2023-04-15T03:14:38.181Z,98508.86
2023-04-15T03:19:41.065Z,98502.64
2023-04-15T03:24:43.902Z,98508.35
2023-04-15T03:29:46.741Z,98506.67
2023-04-15T03:34:49.609Z,98504.69
2023-04-15T03:39:52.402Z,98510.48
2023-04-15T03:44:55.261Z,98510.44
2023-04-15T03:49:58.111Z,98516.63
2023-04-15T03:55:00.907Z,98515.70
2023-04-15T04:00:06.276Z,98514.11
2023-04-15T04:05:09.549Z,98512.45
2023-04-15T04:10:12.366Z,98510.09
2023-04-15T04:15:15.260Z,98511.55
2023-04-15T04:20:18.095Z,98509.30
2023-04-15T04:25:20.941Z,98510.84
2023-04-15T04:30:23.738Z,98510.58
2023-04-15T04:35:26.639Z,98515.88
2023-04-15T04:40:29.507Z,98528.50
2023-04-15T04:45:32.377Z,98531.61
2023-04-15T04:50:35.944Z,98531.02
2023-04-15T04:55:38.771Z,98530.29
2023-04-15T05:00:42.179Z,98526.17
2023-04-15T05:05:45.027Z,98525.42
2023-04-15T05:10:47.889Z,98525.70
2023-04-15T05:15:50.732Z,98538.98
2023-04-15T05:20:53.636Z,98542.05
2023-04-15T05:25:56.443Z,98537.33
2023-04-15T05:30:59.726Z,98540.24
2023-04-15T05:36:02.586Z,98543.56
2023-04-15T05:41:05.616Z,98544.53
2023-04-15T05:46:08.705Z,98551.70
2023-04-15T05:51:11.816Z,98555.37
2023-04-15T05:56:14.632Z,98552.89
2023-04-15T06:01:17.540Z,98552.73
2023-04-15T06:06:21.014Z,98559.31
2023-04-15T06:11:24.302Z,98560.89
2023-04-15T06:16:27.511Z,98565.86
2023-04-15T06:21:31.278Z,98571.66
2023-04-15T06:26:34.077Z,98574.96
2023-04-15T06:31:37.508Z,98583.42
2023-04-15T06:36:40.545Z,98588.05
2023-04-15T06:41:43.391Z,98590.30
2023-04-15T06:46:46.714Z,98589.92
2023-04-15T06:51:49.577Z,98582.94
2023-04-15T06:56:52.808Z,98582.05
2023-04-15T07:01:55.751Z,98588.70
2023-04-15T07:06:58.660Z,98593.25
2023-04-15T07:12:01.473Z,98592.60
2023-04-15T07:17:04.314Z,98593.46
2023-04-15T07:22:07.814Z,98596.91
2023-04-15T07:27:10.804Z,98594.93
2023-04-15T07:32:13.892Z,98593.70
2023-04-15T07:37:16.705Z,98593.73
2023-04-15T07:42:19.741Z,98594.45
2023-04-15T07:47:22.774Z,98590.23
2023-04-15T07:52:25.910Z,98593.33
2023-04-15T07:57:28.811Z,98598.44
2023-04-15T08:02:32.662Z,98601.89
2023-04-15T08:07:38.416Z,98611.71
2023-04-15T08:12:41.606Z,98618.13
2023-04-15T08:17:44.444Z,98622.76
2023-04-15T08:22:51.829Z,98621.77
2023-04-15T08:27:57.629Z,98625.84
2023-04-15T08:33:00.831Z,98636.28
2023-04-15T08:38:03.691Z,98646.58
2023-04-15T08:43:09.406Z,98647.95
2023-04-15T08:48:18.618Z,98650.20
2023-04-15T08:53:22.060Z,98648.41
2023-04-15T08:58:25.544Z,98651.89
2023-04-15T09:03:28.959Z,98658.48
2023-04-15T09:08:42.443Z,98662.65
2023-04-15T09:13:46.418Z,98661.06
2023-04-15T09:18:49.339Z,98662.84
2023-04-15T09:24:02.251Z,98663.10
2023-04-15T09:29:15.183Z,98656.25
2023-04-15T09:34:18.048Z,98657.90
2023-04-15T09:39:21.672Z,98663.38
2023-04-15T09:44:31.646Z,98669.27
2023-04-15T09:49:34.608Z,98672.41
2023-04-15T09:54:38.966Z,98687.23
2023-04-15T09:59:44.120Z,98691.33
2023-04-15T10:04:49.580Z,98696.33
2023-04-15T10:09:53.304Z,98694.91
2023-04-15T10:15:05.242Z,98697.35
2023-04-15T10:20:10.693Z,98695.02
2023-04-15T10:25:15.754Z,98693.04
2023-04-15T10:30:19.546Z,98691.48
2023-04-15T10:35:26.560Z,98691.88
2023-04-15T10:40:32.062Z,98693.73
2023-04-15T10:45:37.866Z,98695.16
2023-04-15T10:50:40.727Z,98693.05
2023-04-15T10:55:43.561Z,98689.09
2023-04-15T11:00:54.602Z,98688.04
2023-04-15T11:05:58.210Z,98688.90
2023-04-15T11:11:00.991Z,98679.73
2023-04-15T11:16:04.014Z,98678.23
2023-04-15T11:21:08.263Z,98679.24
2023-04-15T11:26:12.594Z,98677.79
2023-04-15T11:31:18.456Z,98681.10
2023-04-15T11:36:21.514Z,98682.95
2023-04-15T11:41:24.758Z,98682.83
2023-04-15T11:46:32.031Z,98684.55
2023-04-15T11:51:35.942Z,98689.66
2023-04-15T11:56:39.089Z,98691.62
2023-04-15T12:01:46.693Z,98696.92
2023-04-15T12:06:49.880Z,98699.88
2023-04-15T12:11:58.686Z,98707.06
2023-04-15T12:17:07.377Z,98705.84
2023-04-15T12:22:16.364Z,98705.41
2023-04-15T12:27:19.518Z,98706.76
2023-04-15T12:32:23.795Z,98704.38
2023-04-15T12:37:28.481Z,98707.79
2023-04-15T12:42:35.732Z,98706.96
2023-04-15T12:47:40.132Z,98709.45
2023-04-15T12:52:43.065Z,98711.25
2023-04-15T12:57:45.889Z,98709.80
2023-04-15T13:02:51.565Z,98714.46
2023-04-15T13:07:54.485Z,98719.41
2023-04-15T13:12:57.741Z,98718.42
2023-04-15T13:18:01.198Z,98721.30
2023-04-15T13:23:04.193Z,98724.46
2023-04-15T13:28:07.020Z,98726.48
2023-04-15T13:33:10.106Z,98722.77
2023-04-15T13:38:13.026Z,98721.25
2023-04-15T13:43:16.440Z,98725.78
2023-04-15T13:48:19.365Z,98715.26
2023-04-15T13:53:37.734Z,98718.91
2023-04-15T13:58:42.279Z,98719.19
2023-04-15T14:03:45.320Z,98726.45
2023-04-15T14:08:48.341Z,98727.11
2023-04-15T14:13:51.260Z,98725.85
2023-04-15T14:18:54.078Z,98729.01
2023-04-15T14:23:56.854Z,98736.29
2023-04-15T14:28:59.987Z,98742.96
2023-04-15T14:34:03.450Z,98747.97
2023-04-15T14:39:06.701Z,98758.61
2023-04-15T14:44:11.677Z,98765.20
2023-04-15T14:49:14.847Z,98768.64
2023-04-15T14:54:17.642Z,98791.46
2023-04-15T14:59:20.574Z,98820.66
2023-04-15T15:04:23.523Z,98833.68
2023-04-15T15:09:27.409Z,98840.08
2023-04-15T15:14:30.341Z,98835.42
2023-04-15T15:19:33.342Z,98844.41
2023-04-15T15:24:36.156Z,98855.85
2023-04-15T15:29:39.101Z,98857.09
2023-04-15T15:34:41.897Z,98867.04
2023-04-15T15:39:45.189Z,98867.84
2023-04-15T15:44:49.432Z,98872.02
2023-04-15T15:49:52.983Z,98862.16
2023-04-15T15:54:55.859Z,98847.53
2023-04-15T16:00:10.290Z,98847.40
2023-04-15T16:05:14.695Z,98848.20
2023-04-15T16:10:17.585Z,98846.95
2023-04-15T16:15:20.642Z,98850.61
2023-04-15T16:20:23.590Z,98848.45
2023-04-15T16:25:26.520Z,98844.67
2023-04-15T16:30:29.516Z,98842.45
2023-04-15T16:35:34.551Z,98859.42
2023-04-15T16:40:38.312Z,98878.23
2023-04-15T16:45:41.292Z,98903.64
2023-04-15T16:50:44.602Z,98922.75
2023-04-15T16:55:47.492Z,98929.73
2023-04-15T17:00:51.241Z,98932.36
2023-04-15T17:05:54.056Z,98937.44
2023-04-15T17:10:58.434Z,98940.63
2023-04-15T17:16:02.402Z,98943.63
2023-04-15T17:21:06.175Z,98939.13
2023-04-15T17:26:08.884Z,98943.88
2023-04-15T17:31:12.234Z,98947.73
2023-04-15T17:36:15.081Z,98948.01
2023-04-15T17:41:17.898Z,98940.79
2023-04-15T17:46:20.817Z,98942.26
2023-04-15T17:51:23.796Z,98950.43
2023-04-15T17:56:29.265Z,98964.25
2023-04-15T18:01:32.297Z,98975.48
2023-04-15T18:06:35.720Z,98988.11
2023-04-15T18:11:40.117Z,98998.75
2023-04-15T18:16:43.888Z,99005.27
2023-04-15T18:21:46.730Z,99016.45
2023-04-15T18:26:49.639Z,99025.91
2023-04-15T18:31:52.524Z,99035.13
2023-04-15T18:36:58.986Z,99040.87
2023-04-15T18:42:02.208Z,99040.70
2023-04-15T18:47:05.107Z,99042.81
2023-04-15T18:52:09.887Z,99051.17
2023-04-15T18:57:12.969Z,99053.20
2023-04-15T19:02:31.034Z,99061.93
2023-04-15T19:07:34.940Z,99065.69
2023-04-15T19:12:41.119Z,99067.52
2023-04-15T19:17:44.745Z,99075.96
2023-04-15T19:22:48.345Z,99076.22
2023-04-15T19:27:51.118Z,99081.15
2023-04-15T19:32:54.298Z,99086.81
2023-04-15T19:37:57.179Z,99088.16
2023-04-15T19:43:00.032Z,99090.15
2023-04-15T19:48:02.925Z,99093.55
2023-04-15T19:53:05.972Z,99096.89
2023-04-15T19:58:09.177Z,99095.86
2023-04-15T20:03:12.258Z,99101.41
2023-04-15T20:08:15.458Z,99101.66
2023-04-15T20:13:18.394Z,99104.56
2023-04-15T20:18:21.225Z,99101.46
2023-04-15T20:23:24.019Z,99102.64
2023-04-15T20:28:27.823Z,99106.55
2023-04-15T20:33:30.712Z,99112.83
2023-04-15T20:38:33.583Z,99113.23
2023-04-15T20:43:38.895Z,99115.55
2023-04-15T20:48:41.706Z,99116.29
2023-04-15T20:53:47.689Z,99120.27
2023-04-15T20:58:50.513Z,99120.60
2023-04-15T21:03:53.353Z,99121.07
2023-04-15T21:08:56.209Z,99130.06
2023-04-15T21:14:00.488Z,99126.77
2023-04-15T21:19:03.833Z,99127.77
2023-04-15T21:24:07.978Z,99128.19
2023-04-15T21:29:12.021Z,99132.89
2023-04-15T21:34:15.262Z,99131.39
2023-04-15T21:39:18.170Z,99133.31
2023-04-15T21:44:21.059Z,99139.13
2023-04-15T21:49:25.528Z,99138.60
2023-04-15T21:54:28.644Z,99147.08
2023-04-15T21:59:31.468Z,99149.98
2023-04-15T22:04:34.299Z,99155.66
2023-04-15T22:09:37.548Z,99162.36
2023-04-15T22:14:40.773Z,99168.49
2023-04-15T22:19:45.356Z,99166.44
2023-04-15T22:24:48.211Z,99170.41
2023-04-15T22:29:51.367Z,99175.50
2023-04-15T22:34:54.290Z,99180.70
2023-04-15T22:39:57.746Z,99187.06
2023-04-15T22:45:00.887Z,99188.08
2023-04-15T22:50:03.939Z,99188.55
2023-04-15T22:55:08.242Z,99192.42
2023-04-15T23:00:12.153Z,99195.84
2023-04-15T23:05:15.536Z,99197.03
2023-04-15T23:10:18.569Z,99197.73
2023-04-15T23:15:21.476Z,99195.61
2023-04-15T23:20:24.337Z,99193.45
2023-04-15T23:25:27.373Z,99196.70
2023-04-15T23:30:30.928Z,99195.76
2023-04-15T23:35:33.777Z,99198.25
2023-04-15T23:40:36.597Z,99196.84
2023-04-15T23:45:40.412Z,99196.60
2023-04-15T23:50:43.519Z,99196.36
2023-04-15T23:55:46.663Z,99195.27
